Aérodrome :
LOGIN :

S'inscrire | Disclaimer

   EN    FR    IT 

 










Légende :    VFR   VFR Marginal   IFR   IFR Intensif   IFR Très Intensif
Visi : 
Plafond : 
>= 8 km
>= 3000ft
5 à 8 km
1000 à 3000 ft
1500m à 5 km
500 à 1000 ft
800 à 1500m
200 à 500 ft
< 800m
< 200 ft
Symboles :   Orages  Brouillard  Fortes neiges  Fortes précipitations  Vent > 20 kt
SIGMETs :   Divers  Orages  Givrage  Turbulence  Onde Orograph.  Cendres Volcan.







- Altitude de l'aérodrome : 13 ft
- Code IATA : SNR
- Voir les cartes d'approche


LFRZ - St-Nazaire

DERNIER METAR :
  • 230700Z AUTO 21015KT 9999 FEW015 BKN021 BKN026 14/13 Q1003 TEMPO 4000 SHRA BKN013 SCT020TCU BECMG 20022G35KT

METARs EXPIRÉS :
  • 230630Z AUTO 22015KT CAVOK 14/13 Q1003 TEMPO 4000 SHRA BKN013 SCT020TCU BECMG 20022G35KT
  • 230600Z AUTO 22014KT 9999 FEW023 14/12 Q1002 TEMPO 4000 SHRA BKN013 SCT020TCU BECMG 20022G35KT
  • 230530Z AUTO 22016KT 9999 BKN026 BKN031 15/12 Q1002 TEMPO 4000 SHRA BKN008 SCT020TCU BECMG 20022G35KT
  • 230500Z AUTO 23016KT 9999 FEW014 BKN024 BKN031 14/12 Q1001 TEMPO 4000 SHRA BKN008 SCT020TCU BECMG 20022G35KT
  • 230430Z AUTO 22016KT 9999 FEW029 BKN054 OVC068 15/13 Q1001 TEMPO 4000 SHRA BKN008 SCT020TCU BECMG 20022G35KT

TAF TAF LFRZ
Valide du 23 à 06h jusqu'au 24 à 06h UTC


230500Z 2306/2406 20022G35KT 9999 BKN016
TEMPO 2306/2310 4000 SHRA BKN013 SCT020TCU
BECMG 2309/2311 23018G28KT
PROB30
TEMPO 2311/2312 24018G30KT -SHRA BKN012
BECMG 2313/2315 27010KT
BECMG 2320/2322 20020G34KT
TEMPO 2321/2406 3000 -RA BKN014 SCT020CB
BECMG 2402/2404 25015G25KT
Pas de NOTAMs connus pour ce terrain.



MET'MAP, la Météo Aéronautique d'un coup d'oeil ! - Copyright ORBIFLY Décembre 2007 - Disclaimer

ORBIFLY MET'MAP TEAM :

Programmation & Développement : Alexandra Zaïnal
Conception & Développement : Baudouin d'Aumeries
Co-Programmation & Développement : Marc-Olivier Méhu
Soutien technique & logistique : Manuel Goepfert

Contact : metmap@orbifly.com




SOURCES & CREDITS :

   NOAA